Time;durP1;ratioP1;P1;durP2;ratioP2;P2;SDS_P1;SDS_P2;PMS_P1;PMS_P2;Temp;Humidity;BMP_temperature;BMP_pressure;BME280_temperature;BME280_humidity;BME280_pressure;Samples;Min_cycle;Max_cycle;Signal;HPM_P1;HPM_P2
2021/04/23 02:46:13;;;;;;;15.27;6.28;;;8.60;57.50;;;;;;5325555;24;19934;-70
2021/04/23 02:48:42;;;;;;;23.05;5.22;;;8.60;57.00;;;;;;4804639;29;20022;-70
2021/04/23 02:51:14;;;;;;;21.15;6.22;;;8.60;57.00;;;;;;4801889;29;20186;-70
2021/04/23 02:53:40;;;;;;;18.88;5.97;;;8.60;57.00;;;;;;4812855;29;20062;-70
2021/04/23 02:56:10;;;;;;;20.33;6.07;;;8.50;57.00;;;;;;4797871;29;20098;-70
2021/04/23 02:58:36;;;;;;;29.25;6.72;;;8.50;56.90;;;;;;4805211;29;20285;-70
2021/04/23 03:01:07;;;;;;;17.98;5.50;;;8.50;57.00;;;;;;4810208;29;20030;-70
2021/04/23 03:03:33;;;;;;;16.48;5.55;;;8.50;56.90;;;;;;4812527;29;20179;-70
2021/04/23 03:05:59;;;;;;;19.27;5.15;;;8.50;57.10;;;;;;4804673;29;20034;-70
2021/04/23 03:08:25;;;;;;;22.08;6.00;;;8.50;57.10;;;;;;4795168;29;20039;-70
2021/04/23 03:10:58;;;;;;;26.45;5.95;;;8.40;57.60;;;;;;4808447;29;20072;-70
2021/04/23 03:13:27;;;;;;;28.48;6.03;;;8.40;57.50;;;;;;4794607;29;20046;-70
2021/04/23 03:15:54;;;;;;;15.77;5.93;;;8.40;57.30;;;;;;4802807;29;20184;-71
2021/04/23 03:18:22;;;;;;;19.35;5.50;;;8.30;57.80;;;;;;4803319;29;20046;-71
2021/04/23 03:20:49;;;;;;;17.70;4.88;;;8.40;58.00;;;;;;4813201;29;20030;-70
2021/04/23 03:23:15;;;;;;;21.08;6.22;;;8.40;57.80;;;;;;4806795;29;20039;-71
2021/04/23 03:25:42;;;;;;;16.52;5.68;;;8.30;57.80;;;;;;4808202;29;20037;-70
2021/04/23 03:28:08;;;;;;;21.98;6.70;;;8.40;58.30;;;;;;4811534;29;20403;-70
2021/04/23 03:30:39;;;;;;;17.85;4.95;;;8.30;58.10;;;;;;4802005;29;20111;-71
2021/04/23 03:33:06;;;;;;;15.82;5.78;;;8.20;58.40;;;;;;4809074;29;20301;-71
2021/04/23 03:35:32;;;;;;;16.70;5.38;;;8.30;58.40;;;;;;4807354;29;20041;-71
2021/04/23 03:37:59;;;;;;;19.25;5.32;;;8.30;58.00;;;;;;4810233;29;20027;-71
2021/04/23 03:40:27;;;;;;;20.33;5.65;;;8.20;59.30;;;;;;4804873;29;20199;-71
2021/04/23 03:42:53;;;;;;;20.13;6.05;;;8.30;58.60;;;;;;4810769;29;20030;-71
2021/04/23 03:45:23;;;;;;;16.20;5.50;;;8.30;58.70;;;;;;4803208;29;20050;-71
2021/04/23 03:47:49;;;;;;;22.20;5.72;;;8.30;58.60;;;;;;4809477;29;20043;-71
2021/04/23 03:50:17;;;;;;;22.08;5.82;;;8.30;58.50;;;;;;4789699;29;20121;-71
2021/04/23 03:52:43;;;;;;;16.40;5.68;;;8.30;59.20;;;;;;4809533;29;20341;-71
2021/04/23 03:55:14;;;;;;;19.10;5.85;;;8.30;59.10;;;;;;4804229;29;20047;-71
2021/04/23 03:57:40;;;;;;;19.08;5.95;;;8.30;58.60;;;;;;4797172;29;20080;-71
2021/04/23 04:00:09;;;;;;;22.35;5.75;;;8.30;58.50;;;;;;4801907;29;20024;-71
2021/04/23 04:02:38;;;;;;;23.17;6.20;;;8.40;58.50;;;;;;4793674;29;20153;-71
2021/04/23 04:05:05;;;;;;;28.23;6.00;;;8.30;58.60;;;;;;4802671;29;20050;-71
2021/04/23 04:07:31;;;;;;;25.38;5.68;;;8.40;58.80;;;;;;4804532;29;20045;-71
2021/04/23 04:09:56;;;;;;;17.88;5.45;;;8.40;58.80;;;;;;4816763;29;20031;-71
2021/04/23 04:12:22;;;;;;;33.00;6.78;;;8.30;58.70;;;;;;4815243;29;20272;-71
2021/04/23 04:14:48;;;;;;;24.77;5.45;;;8.40;58.90;;;;;;4810336;29;20042;-72
2021/04/23 04:17:13;;;;;;;17.63;6.15;;;8.40;58.70;;;;;;4805179;29;20026;-71
2021/04/23 04:19:39;;;;;;;18.35;6.03;;;8.40;59.00;;;;;;4814655;29;20052;-71
2021/04/23 04:22:05;;;;;;;20.90;5.82;;;8.40;59.00;;;;;;4806467;29;20035;-71
2021/04/23 04:24:31;;;;;;;20.98;5.32;;;8.40;59.00;;;;;;4801582;29;20114;-71
2021/04/23 04:26:56;;;;;;;19.38;5.85;;;8.50;59.50;;;;;;4801039;29;20035;-71
2021/04/23 04:29:22;;;;;;;18.50;5.57;;;8.50;58.90;;;;;;4797513;29;20054;-71
2021/04/23 04:31:48;;;;;;;22.00;6.13;;;8.60;58.70;;;;;;4798634;29;20026;-71
2021/04/23 04:34:14;;;;;;;19.73;6.55;;;8.50;59.20;;;;;;4796300;29;20073;-71
2021/04/23 04:36:40;;;;;;;16.55;5.00;;;8.50;59.10;;;;;;4803054;29;20027;-71
2021/04/23 04:39:07;;;;;;;21.47;5.70;;;8.50;59.10;;;;;;4806313;29;20366;-71
2021/04/23 04:41:34;;;;;;;23.40;6.10;;;8.60;59.30;;;;;;4807964;29;20022;-71
2021/04/23 04:43:59;;;;;;;23.55;5.00;;;8.60;58.80;;;;;;4808097;29;20084;-71
2021/04/23 04:46:25;;;;;;;24.33;5.95;;;8.60;58.70;;;;;;4801374;29;20047;-71
2021/04/23 04:48:51;;;;;;;23.88;6.40;;;8.60;59.00;;;;;;4801969;29;20063;-71
2021/04/23 04:51:17;;;;;;;21.13;6.22;;;8.60;58.20;;;;;;4799880;29;20046;-71
2021/04/23 04:53:43;;;;;;;18.65;5.55;;;8.70;58.70;;;;;;4801090;29;20029;-71
2021/04/23 04:56:09;;;;;;;28.40;7.93;;;8.70;58.50;;;;;;4800949;29;20062;-71
2021/04/23 04:58:38;;;;;;;26.73;6.18;;;8.80;58.20;;;;;;4799447;29;20027;-71
2021/04/23 05:01:06;;;;;;;19.25;5.28;;;8.80;58.60;;;;;;4801257;29;20057;-71
2021/04/23 05:03:32;;;;;;;20.13;5.50;;;8.80;58.50;;;;;;4803020;29;20058;-71
2021/04/23 05:05:58;;;;;;;22.45;6.43;;;8.80;58.10;;;;;;4803601;29;20313;-71
2021/04/23 05:08:24;;;;;;;21.23;5.60;;;8.90;57.90;;;;;;4805333;29;20065;-71
2021/04/23 05:10:50;;;;;;;18.33;6.18;;;8.80;58.10;;;;;;4805919;29;20038;-70
2021/04/23 05:13:16;;;;;;;17.60;4.90;;;8.90;58.00;;;;;;4802142;29;20076;-71
2021/04/23 05:15:42;;;;;;;15.90;4.78;;;9.00;57.90;;;;;;4798593;29;20226;-71
2021/04/23 05:18:08;;;;;;;24.02;6.50;;;9.10;57.80;;;;;;4799520;29;20053;-71
2021/04/23 05:20:35;;;;;;;36.47;6.63;;;9.10;58.10;;;;;;4821974;29;20031;-71
2021/04/23 05:23:01;;;;;;;20.00;5.07;;;9.10;57.70;;;;;;4800307;29;20128;-71
2021/04/23 05:25:27;;;;;;;16.55;5.63;;;9.10;57.40;;;;;;4799439;29;20039;-71
2021/04/23 05:27:54;;;;;;;29.45;5.70;;;9.20;57.40;;;;;;4803445;29;20035;-71
2021/04/23 05:30:27;;;;;;;27.08;5.93;;;9.20;57.10;;;;;;4798939;29;20031;-71
2021/04/23 05:32:54;;;;;;;22.30;5.45;;;9.20;57.00;;;;;;4798322;29;20027;-71
2021/04/23 05:35:22;;;;;;;25.65;5.55;;;9.20;56.70;;;;;;4799390;29;20051;-71
2021/04/23 05:37:49;;;;;;;15.20;4.82;;;9.20;56.30;;;;;;4801980;29;20142;-71
2021/04/23 05:40:19;;;;;;;20.33;5.18;;;9.30;57.00;;;;;;4807890;29;20035;-71
2021/04/23 05:42:45;;;;;;;25.35;6.40;;;9.40;56.50;;;;;;4810736;29;20147;-71
2021/04/23 05:45:13;;;;;;;20.52;6.05;;;9.40;56.40;;;;;;4807616;29;20034;-71
2021/04/23 05:47:40;;;;;;;22.42;5.00;;;9.50;55.50;;;;;;4809848;29;20070;-71
2021/04/23 05:50:09;;;;;;;18.20;5.13;;;9.40;55.70;;;;;;4798997;29;20050;-71
2021/04/23 05:52:34;;;;;;;21.65;5.25;;;9.40;56.00;;;;;;4804727;29;20026;-71
2021/04/23 05:55:00;;;;;;;20.65;5.10;;;9.40;55.80;;;;;;4798369;29;20306;-71
2021/04/23 05:57:26;;;;;;;25.23;5.35;;;9.50;55.70;;;;;;4801984;29;20053;-71
2021/04/23 05:59:52;;;;;;;19.08;5.28;;;9.50;55.80;;;;;;4801045;29;20030;-71
2021/04/23 06:02:17;;;;;;;20.60;4.57;;;9.60;55.80;;;;;;4801129;29;20026;-71
2021/04/23 06:04:43;;;;;;;22.95;5.88;;;9.70;56.20;;;;;;4801059;29;20035;-71
2021/04/23 06:07:09;;;;;;;15.20;4.40;;;9.80;55.80;;;;;;4799380;29;20027;-71
2021/04/23 06:09:34;;;;;;;19.55;5.68;;;9.80;55.70;;;;;;4798041;29;20106;-71
2021/04/23 06:12:00;;;;;;;19.20;4.93;;;9.90;55.20;;;;;;4798601;29;20022;-71
2021/04/23 06:14:26;;;;;;;20.02;5.43;;;9.80;55.60;;;;;;4801561;29;20035;-71
2021/04/23 06:16:53;;;;;;;20.70;4.68;;;9.90;56.00;;;;;;4798346;29;20191;-71
2021/04/23 06:19:20;;;;;;;18.15;5.10;;;9.90;55.20;;;;;;4796803;29;20085;-71
2021/04/23 06:21:46;;;;;;;19.10;5.18;;;10.00;55.30;;;;;;4797492;29;20043;-71
2021/04/23 06:24:12;;;;;;;19.00;6.20;;;10.00;55.20;;;;;;4797250;29;20071;-71
2021/04/23 06:26:38;;;;;;;14.98;4.80;;;10.00;55.40;;;;;;4797479;29;20338;-72
2021/04/23 06:29:04;;;;;;;13.65;4.90;;;10.00;55.30;;;;;;4794537;29;20086;-71
2021/04/23 06:31:29;;;;;;;15.32;5.30;;;10.10;55.20;;;;;;4800281;29;20038;-71
2021/04/23 06:33:55;;;;;;;32.38;5.72;;;10.20;55.00;;;;;;4786052;29;20054;-71
2021/04/23 06:36:21;;;;;;;17.05;4.88;;;10.50;54.30;;;;;;4803867;29;20035;-71
2021/04/23 06:38:48;;;;;;;19.97;5.40;;;10.70;53.40;;;;;;4811734;29;20038;-71
2021/04/23 06:41:14;;;;;;;16.45;4.85;;;11.00;52.80;;;;;;4798194;29;20347;-71
2021/04/23 06:43:42;;;;;;;13.52;4.75;;;11.30;52.60;;;;;;4799213;29;20046;-71
2021/04/23 06:46:09;;;;;;;12.95;4.90;;;11.60;51.90;;;;;;4800088;29;20142;-71
2021/04/23 06:48:34;;;;;;;36.30;6.57;;;11.60;51.00;;;;;;4798439;29;20031;-71
2021/04/23 06:51:03;;;;;;;14.68;4.45;;;11.70;50.70;;;;;;4800998;29;20071;-71
2021/04/23 06:53:30;;;;;;;16.83;5.38;;;11.60;50.10;;;;;;4800564;29;20039;-71
2021/04/23 06:55:56;;;;;;;18.80;4.43;;;11.90;51.20;;;;;;4806702;29;20046;-71
2021/04/23 06:58:22;;;;;;;18.35;5.30;;;11.90;50.10;;;;;;4806370;29;20072;-71
2021/04/23 07:00:48;;;;;;;13.02;4.60;;;12.10;50.10;;;;;;4806566;29;20027;-71
2021/04/23 07:03:14;;;;;;;16.07;5.33;;;12.30;49.50;;;;;;4800577;29;20038;-71
2021/04/23 07:05:43;;;;;;;19.65;4.72;;;12.30;49.50;;;;;;4801849;29;20507;-72
2021/04/23 07:08:08;;;;;;;17.60;5.28;;;12.40;49.50;;;;;;4805216;29;20054;-71
2021/04/23 07:10:34;;;;;;;13.20;4.80;;;12.50;49.90;;;;;;4805421;29;20027;-71
2021/04/23 07:13:01;;;;;;;14.30;4.85;;;12.40;48.20;;;;;;4782713;29;20115;-71
2021/04/23 07:15:30;;;;;;;22.23;4.45;;;12.50;50.60;;;;;;4805083;29;20164;-72
2021/04/23 07:17:55;;;;;;;21.15;4.85;;;12.60;49.60;;;;;;4809267;29;20026;-72
2021/04/23 07:20:23;;;;;;;14.15;5.53;;;12.50;48.90;;;;;;4812083;29;20050;-72
2021/04/23 07:22:51;;;;;;;11.35;5.30;;;12.60;48.70;;;;;;4811062;29;20026;-71
2021/04/23 07:25:18;;;;;;;24.95;5.32;;;12.60;48.70;;;;;;4801936;29;20051;-72
2021/04/23 07:27:44;;;;;;;13.80;4.78;;;12.60;48.60;;;;;;4803080;29;20023;-72
2021/04/23 07:30:13;;;;;;;11.13;3.83;;;12.60;48.80;;;;;;4800865;29;20257;-71
2021/04/23 07:32:39;;;;;;;16.65;5.25;;;12.60;48.30;;;;;;4801934;29;20092;-73
2021/04/23 07:35:05;;;;;;;15.38;4.82;;;12.70;50.10;;;;;;4802081;29;20035;-73
2021/04/23 07:37:31;;;;;;;18.30;5.32;;;12.70;48.70;;;;;;4802732;29;20027;-72
2021/04/23 07:39:57;;;;;;;18.83;5.13;;;12.60;47.50;;;;;;4795638;29;20333;-72
2021/04/23 07:42:23;;;;;;;16.02;5.18;;;12.80;49.80;;;;;;4794950;29;20043;-72
2021/04/23 07:44:49;;;;;;;14.07;4.70;;;12.60;47.70;;;;;;4801618;29;20040;-72
2021/04/23 07:47:14;;;;;;;11.68;4.60;;;12.70;49.10;;;;;;4808055;29;20105;-72
2021/04/23 07:49:42;;;;;;;14.68;4.85;;;12.80;48.00;;;;;;4786992;30;20035;-72
2021/04/23 07:52:08;;;;;;;15.48;4.70;;;12.80;47.60;;;;;;4796873;29;20056;-72
2021/04/23 07:54:33;;;;;;;15.07;5.55;;;12.80;47.70;;;;;;4798424;29;20073;-72
2021/04/23 07:56:59;;;;;;;16.02;4.97;;;12.80;47.10;;;;;;4809987;29;20037;-72
2021/04/23 07:59:25;;;;;;;13.63;4.60;;;13.00;48.60;;;;;;4801029;29;20031;-73
2021/04/23 08:01:54;;;;;;;13.15;3.80;;;13.00;46.90;;;;;;4798152;29;20026;-73
2021/04/23 08:04:24;;;;;;;11.23;4.78;;;12.90;45.90;;;;;;4813238;29;20054;-72
2021/04/23 08:06:50;;;;;;;26.38;5.32;;;13.00;48.30;;;;;;4814808;29;20383;-73
2021/04/23 08:09:16;;;;;;;13.52;5.07;;;13.20;47.80;;;;;;4806082;29;20039;-73
2021/04/23 08:11:42;;;;;;;15.85;4.50;;;13.30;48.30;;;;;;4800688;29;20192;-73
2021/04/23 08:14:07;;;;;;;20.23;4.35;;;13.40;46.30;;;;;;4805141;29;20076;-73
2021/04/23 08:16:33;;;;;;;12.45;5.00;;;13.60;43.90;;;;;;4814673;29;20034;-73
2021/04/23 08:18:59;;;;;;;16.40;5.32;;;13.60;44.10;;;;;;4808270;29;20037;-73
2021/04/23 08:21:25;;;;;;;14.93;4.57;;;13.60;43.30;;;;;;4800430;29;20028;-73
2021/04/23 08:23:51;;;;;;;15.32;4.60;;;13.60;44.00;;;;;;4803060;29;20112;-72
2021/04/23 08:26:18;;;;;;;16.65;4.65;;;13.60;45.40;;;;;;4800483;29;20194;-72
2021/04/23 08:28:44;;;;;;;14.02;4.60;;;13.80;44.00;;;;;;4804567;29;20031;-73
2021/04/23 08:31:10;;;;;;;18.37;4.83;;;13.80;43.50;;;;;;4808286;29;20390;-72
2021/04/23 08:33:36;;;;;;;12.10;4.72;;;13.80;43.40;;;;;;4801983;29;20312;-72
2021/04/23 08:36:03;;;;;;;18.42;5.13;;;13.80;43.80;;;;;;4799453;29;20050;-72
2021/04/23 08:38:29;;;;;;;22.17;4.80;;;13.90;44.10;;;;;;4807945;29;20154;-74
2021/04/23 08:40:57;;;;;;;11.02;4.80;;;14.20;43.50;;;;;;4810702;29;20034;-74
2021/04/23 08:43:23;;;;;;;23.25;5.15;;;14.20;43.20;;;;;;4808476;29;20031;-74
2021/04/23 08:45:49;;;;;;;14.17;4.90;;;14.30;43.50;;;;;;4799601;29;20070;-74
2021/04/23 08:48:15;;;;;;;15.05;5.13;;;14.60;43.20;;;;;;4808107;29;20039;-74
2021/04/23 08:50:42;;;;;;;27.50;6.90;;;15.10;42.60;;;;;;4804544;29;20242;-74
2021/04/23 08:53:09;;;;;;;13.52;4.05;;;15.00;40.20;;;;;;4799009;29;20265;-73
2021/04/23 08:55:35;;;;;;;16.35;4.97;;;15.10;38.80;;;;;;4803501;29;20047;-73
2021/04/23 08:58:02;;;;;;;14.37;4.20;;;15.90;40.50;;;;;;4810281;29;20137;-73
2021/04/23 09:00:28;;;;;;;;;;;16.10;38.40;;;;;;4804534;29;20103;-73
2021/04/23 09:02:54;;;;;;;12.30;4.60;;;16.40;37.90;;;;;;4804748;29;19924;-73
2021/04/23 09:05:20;;;;;;;13.07;5.05;;;16.50;37.30;;;;;;4802474;29;20283;-74
2021/04/23 09:08:07;;;;;;;12.80;4.82;;;16.80;37.60;;;;;;4804687;29;20106;-73
2021/04/23 09:10:35;;;;;;;12.23;4.97;;;17.30;36.80;;;;;;4809128;29;20038;-73
2021/04/23 09:13:18;;;;;;;13.20;4.50;;;17.80;36.00;;;;;;4810908;29;20126;-73
2021/04/23 09:15:46;;;;;;;13.80;5.30;;;18.00;34.80;;;;;;4812612;29;20086;-73
2021/04/23 09:18:16;;;;;;;12.88;4.38;;;17.90;34.10;;;;;;4807571;29;20034;-73
2021/04/23 09:21:01;;;;;;;16.92;4.78;;;17.80;34.20;;;;;;4802024;29;20039;-74
2021/04/23 09:23:27;;;;;;;11.25;4.07;;;17.20;35.40;;;;;;4808609;29;20035;-73
2021/04/23 09:25:57;;;;;;;14.38;4.53;;;17.20;38.30;;;;;;4806627;29;20138;-73
2021/04/23 09:28:40;;;;;;;7.28;3.90;;;17.80;35.70;;;;;;4806718;29;20035;-73
2021/04/23 09:31:38;;;;;;;15.02;4.70;;;17.60;36.10;;;;;;4802196;29;20114;-74
2021/04/23 09:34:06;;;;;;;14.00;4.82;;;17.10;35.40;;;;;;4732642;30;20095;-74
2021/04/23 09:36:40;;;;;;;19.33;4.53;;;17.30;35.60;;;;;;4724901;30;20163;-73
2021/04/23 09:39:13;;;;;;;9.93;4.28;;;17.10;36.40;;;;;;4742557;30;20032;-73
2021/04/23 09:41:41;;;;;;;13.27;4.15;;;17.20;37.10;;;;;;4708274;30;20065;-74
2021/04/23 09:44:29;;;;;;;16.77;4.63;;;17.50;36.60;;;;;;4727777;30;20082;-74
2021/04/23 09:47:06;;;;;;;10.40;5.03;;;17.70;37.10;;;;;;4742098;30;20107;-73
2021/04/23 09:49:32;;;;;;;12.73;3.95;;;18.60;33.70;;;;;;4738709;30;20110;-74
2021/04/23 09:52:01;;;;;;;12.23;4.18;;;18.90;32.60;;;;;;4727138;30;20077;-73
2021/04/23 09:54:27;;;;;;;13.05;4.68;;;18.00;34.40;;;;;;4712556;30;20032;-74
2021/04/23 09:56:54;;;;;;;11.43;4.35;;;17.50;34.30;;;;;;4722011;30;20067;-73
2021/04/23 09:59:24;;;;;;;10.32;4.95;;;17.20;35.10;;;;;;4713032;30;20399;-72
2021/04/23 10:01:54;;;;;;;11.85;4.30;;;17.40;36.70;;;;;;4741323;30;20036;-72
2021/04/23 10:04:24;;;;;;;14.52;4.40;;;18.00;35.00;;;;;;4727608;30;20052;-72
2021/04/23 10:07:12;;;;;;;10.85;4.50;;;18.80;32.70;;;;;;4736212;30;20036;-72
2021/04/23 10:09:58;;;;;;;8.90;4.28;;;18.20;33.50;;;;;;4756782;29;20134;-72
2021/04/23 10:12:53;;;;;;;14.27;4.82;;;18.10;34.00;;;;;;4804775;29;20035;-73
2021/04/23 10:15:23;;;;;;;13.25;5.07;;;18.70;33.90;;;;;;4805236;29;20043;-73
2021/04/23 10:18:00;;;;;;;10.98;4.25;;;19.80;33.40;;;;;;4812388;29;20031;-72
2021/04/23 10:20:38;;;;;;;11.10;5.00;;;20.80;31.40;;;;;;4796615;29;20065;-72
2021/04/23 10:23:06;;;;;;;18.52;4.63;;;21.00;29.50;;;;;;4798674;29;20035;-72
2021/04/23 10:25:33;;;;;;;10.25;4.35;;;21.70;29.90;;;;;;4801231;29;20027;-72
2021/04/23 10:28:01;;;;;;;11.52;4.57;;;22.30;30.00;;;;;;4795157;29;20039;-72
2021/04/23 10:30:30;;;;;;;13.15;4.40;;;22.60;28.70;;;;;;4811408;29;20062;-72
2021/04/23 10:32:58;;;;;;;7.88;3.95;;;22.80;28.40;;;;;;4809428;29;20030;-72
2021/04/23 10:35:24;;;;;;;11.32;3.53;;;22.30;28.40;;;;;;4802844;29;20038;-72
2021/04/23 10:37:51;;;;;;;11.02;4.38;;;21.20;28.80;;;;;;4799921;29;20076;-72
2021/04/23 10:40:20;;;;;;;9.15;3.88;;;21.00;29.90;;;;;;4810185;29;20076;-72
2021/04/23 10:42:55;;;;;;;7.28;3.90;;;21.40;29.10;;;;;;4808359;29;20027;-72
2021/04/23 10:45:39;;;;;;;17.17;3.85;;;21.20;29.40;;;;;;4809320;29;20369;-72
2021/04/23 10:48:16;;;;;;;11.35;3.90;;;21.60;28.70;;;;;;4802121;29;20039;-72
2021/04/23 10:50:49;;;;;;;7.30;3.83;;;22.10;28.20;;;;;;4803166;29;20034;-71
2021/04/23 10:53:19;;;;;;;9.88;3.53;;;22.90;28.40;;;;;;4808873;29;20080;-73
2021/04/23 10:55:49;;;;;;;6.90;3.63;;;23.70;27.70;;;;;;4797815;29;20308;-72
2021/04/23 10:58:34;;;;;;;10.95;3.83;;;25.00;27.70;;;;;;4809690;29;20045;-73
2021/04/23 11:01:21;;;;;;;11.73;3.58;;;24.60;25.20;;;;;;4804792;29;20054;-72
2021/04/23 11:04:03;;;;;;;13.52;3.42;;;24.50;26.20;;;;;;4806689;29;20129;-73
2021/04/23 11:06:35;;;;;;;10.27;3.20;;;25.10;25.10;;;;;;4801323;29;20019;-73
2021/04/23 11:09:01;;;;;;;12.82;3.90;;;25.50;25.30;;;;;;4797404;29;20103;-74
2021/04/23 11:11:31;;;;;;;10.38;4.32;;;25.70;24.50;;;;;;4806066;29;20027;-72
2021/04/23 11:14:22;;;;;;;8.77;3.97;;;26.30;25.20;;;;;;4809801;29;20031;-72
2021/04/23 11:16:53;;;;;;;14.40;3.70;;;26.10;24.10;;;;;;4805110;29;20156;-72
2021/04/23 11:19:19;;;;;;;9.77;3.38;;;25.40;24.80;;;;;;4805798;29;20062;-72
2021/04/23 11:22:04;;;;;;;11.93;3.90;;;25.20;24.10;;;;;;4804059;29;20027;-73
2021/04/23 11:24:30;;;;;;;7.95;3.10;;;25.20;24.40;;;;;;4807843;29;20034;-73
2021/04/23 11:27:00;;;;;;;10.27;3.33;;;24.30;25.10;;;;;;4809474;29;20090;-73
2021/04/23 11:29:49;;;;;;;15.57;4.18;;;23.90;24.70;;;;;;4805430;29;20043;-73
2021/04/23 11:32:17;;;;;;;13.07;4.53;;;23.20;26.50;;;;;;4802817;29;20205;-73
2021/04/23 11:34:57;;;;;;;10.77;3.80;;;23.30;25.90;;;;;;4803526;29;20073;-73
2021/04/23 11:37:46;;;;;;;10.55;3.60;;;23.90;26.20;;;;;;4803763;29;20299;-72
2021/04/23 11:40:29;;;;;;;10.50;3.78;;;24.10;25.60;;;;;;4798149;29;20031;-72
2021/04/23 11:42:58;;;;;;;9.45;4.07;;;24.60;25.30;;;;;;4784982;29;20056;-73
2021/04/23 11:45:28;;;;;;;12.90;4.28;;;24.20;25.60;;;;;;4809093;29;20034;-73
2021/04/23 11:47:59;;;;;;;11.90;4.63;;;23.20;25.80;;;;;;4798667;29;20073;-73
2021/04/23 11:50:42;;;;;;;9.20;4.32;;;23.30;27.00;;;;;;4805081;29;20098;-72
2021/04/23 11:53:14;;;;;;;7.65;3.65;;;23.40;27.00;;;;;;4809760;29;20089;-72
2021/04/23 11:55:45;;;;;;;16.20;5.13;;;23.50;26.60;;;;;;4806942;29;20321;-72
2021/04/23 11:58:12;;;;;;;12.77;5.00;;;23.30;26.90;;;;;;4810284;29;20037;-72
2021/04/23 12:00:40;;;;;;;14.73;5.13;;;22.80;26.80;;;;;;4813713;29;20061;-72
2021/04/23 12:03:11;;;;;;;10.82;4.50;;;22.50;27.10;;;;;;4809906;29;20362;-72
2021/04/23 12:05:40;;;;;;;14.93;4.70;;;22.90;27.70;;;;;;4802906;29;20039;-72
2021/04/23 12:08:09;;;;;;;8.73;4.35;;;23.00;26.70;;;;;;4812372;29;20106;-72
2021/04/23 12:10:38;;;;;;;14.13;4.63;;;23.70;26.90;;;;;;4804191;29;20087;-72
2021/04/23 12:13:27;;;;;;;14.50;5.00;;;23.10;26.30;;;;;;4808216;29;20315;-72
2021/04/23 12:16:05;;;;;;;12.85;5.07;;;23.00;27.60;;;;;;4806294;29;20102;-72
2021/04/23 12:18:32;;;;;;;21.75;4.72;;;22.90;27.40;;;;;;4791093;30;20134;-72
2021/04/23 12:21:00;;;;;;;13.82;5.00;;;23.00;27.40;;;;;;4806180;29;20290;-72
2021/04/23 12:23:31;;;;;;;10.85;3.75;;;22.60;27.40;;;;;;4820381;29;20050;-73
2021/04/23 12:26:02;;;;;;;13.23;4.43;;;21.70;28.10;;;;;;4805394;29;20080;-72
2021/04/23 12:28:35;;;;;;;14.13;4.22;;;21.40;28.20;;;;;;4806201;29;20071;-72
2021/04/23 12:31:16;;;;;;;10.15;4.55;;;21.20;28.70;;;;;;4802060;29;20225;-73
2021/04/23 12:33:57;;;;;;;13.15;4.95;;;20.80;28.50;;;;;;4804435;29;20076;-73
2021/04/23 12:36:24;;;;;;;10.85;4.60;;;20.60;28.10;;;;;;4801327;29;20035;-73
2021/04/23 12:39:01;;;;;;;11.93;3.95;;;20.30;28.90;;;;;;4800777;29;20026;-72
2021/04/23 12:41:30;;;;;;;11.65;4.03;;;20.20;29.40;;;;;;4805985;29;20279;-73
2021/04/23 12:44:01;;;;;;;9.35;3.83;;;20.10;29.30;;;;;;4810355;29;20054;-71
2021/04/23 12:46:41;;;;;;;10.25;3.75;;;20.40;29.10;;;;;;4810379;29;20126;-70
2021/04/23 12:49:08;;;;;;;11.55;4.40;;;20.30;29.40;;;;;;4814195;29;20050;-70
2021/04/23 12:51:37;;;;;;;16.75;3.75;;;20.10;29.00;;;;;;4807273;29;20031;-71
2021/04/23 12:54:03;;;;;;;11.65;4.10;;;19.70;29.80;;;;;;4807999;29;20031;-71
2021/04/23 12:56:30;;;;;;;11.63;4.23;;;19.60;29.80;;;;;;4812969;29;20076;-71
2021/04/23 12:58:57;;;;;;;10.23;3.85;;;19.20;30.10;;;;;;4808852;29;20248;-72
2021/04/23 13:01:23;;;;;;;;;;;19.30;30.00;;;;;;4786276;30;20091;-71
2021/04/23 13:04:10;;;;;;;12.88;4.22;;;19.10;29.70;;;;;;4810612;29;19910;-71
2021/04/23 13:06:37;;;;;;;19.98;4.68;;;18.80;29.90;;;;;;4811811;29;20037;-71
2021/04/23 13:09:12;;;;;;;11.20;4.32;;;19.00;30.90;;;;;;4806432;29;20222;-71
2021/04/23 13:11:39;;;;;;;11.30;4.38;;;19.30;31.00;;;;;;4803449;29;20110;-71
2021/04/23 13:14:22;;;;;;;9.45;3.70;;;19.20;30.70;;;;;;4807591;29;20035;-72
2021/04/23 13:16:59;;;;;;;18.75;4.78;;;19.10;29.80;;;;;;4802661;29;20051;-71
2021/04/23 13:19:31;;;;;;;;;;;18.90;30.80;;;;;;4809309;29;20034;-71
2021/04/23 13:21:56;;;;;;;16.58;4.13;;;18.90;30.20;;;;;;4805467;29;19909;-71
2021/04/23 13:24:22;;;;;;;15.48;5.07;;;18.80;31.60;;;;;;4801107;29;20203;-71
2021/04/23 13:26:48;;;;;;;14.10;4.55;;;18.80;31.10;;;;;;4808184;29;20226;-71
2021/04/23 13:29:13;;;;;;;13.35;4.40;;;18.90;32.10;;;;;;4808357;29;20075;-71
2021/04/23 13:31:40;;;;;;;11.50;3.95;;;18.90;31.10;;;;;;4803026;29;20039;-71
2021/04/23 13:34:08;;;;;;;11.50;4.45;;;18.90;30.40;;;;;;4803952;29;20345;-71
2021/04/23 13:36:35;;;;;;;9.68;3.75;;;18.90;30.50;;;;;;4800660;29;20233;-70
2021/04/23 13:39:06;;;;;;;11.98;3.80;;;18.70;30.40;;;;;;4783175;29;20386;-70
2021/04/23 13:41:42;;;;;;;11.70;3.67;;;18.70;30.70;;;;;;4810079;29;20034;-71
2021/04/23 13:44:21;;;;;;;9.43;3.95;;;18.70;31.20;;;;;;4815106;29;20015;-70
2021/04/23 13:46:56;;;;;;;9.43;3.58;;;18.70;30.90;;;;;;4812371;29;20062;-70
2021/04/23 13:49:32;;;;;;;18.02;3.58;;;18.90;29.70;;;;;;4799778;29;20027;-70
2021/04/23 13:52:26;;;;;;;9.88;3.20;;;18.90;29.60;;;;;;4793890;29;20245;-70
2021/04/23 13:54:51;;;;;;;6.75;2.88;;;18.90;29.60;;;;;;4783792;29;20030;-70
2021/04/23 13:57:19;;;;;;;9.23;3.08;;;18.80;29.70;;;;;;4801982;29;20042;-70
2021/04/23 13:59:47;;;;;;;10.05;3.63;;;18.90;30.50;;;;;;4812240;29;20037;-70
2021/04/23 14:02:17;;;;;;;8.27;2.90;;;18.90;29.80;;;;;;4806867;29;20034;-70
2021/04/23 14:04:43;;;;;;;11.65;3.08;;;18.70;29.30;;;;;;4797047;29;20030;-70
2021/04/23 14:07:15;;;;;;;8.82;2.58;;;18.50;29.10;;;;;;4808837;29;20026;-70
2021/04/23 14:09:41;;;;;;;12.13;2.85;;;18.20;29.30;;;;;;4807665;29;20356;-71
2021/04/23 14:12:13;;;;;;;8.27;3.37;;;18.20;29.60;;;;;;4804849;29;20027;-70
2021/04/23 14:14:40;;;;;;;11.27;3.28;;;18.30;29.10;;;;;;4794446;29;20355;-70
2021/04/23 14:17:08;;;;;;;9.73;3.30;;;18.20;29.60;;;;;;4802190;29;20295;-71
2021/04/23 14:19:36;;;;;;;10.73;3.05;;;18.20;29.20;;;;;;4806698;29;20402;-70
2021/04/23 14:22:03;;;;;;;17.60;3.53;;;18.20;29.80;;;;;;4804341;29;20039;-71
2021/04/23 14:24:30;;;;;;;14.25;3.50;;;18.10;29.80;;;;;;4797120;29;20042;-71
2021/04/23 14:26:56;;;;;;;10.15;3.40;;;18.30;29.80;;;;;;4806387;29;20225;-71
2021/04/23 14:29:23;;;;;;;16.75;3.53;;;18.50;30.10;;;;;;4805113;29;20055;-72
2021/04/23 14:31:51;;;;;;;8.52;3.00;;;18.70;29.90;;;;;;4811304;29;20047;-72
2021/04/23 14:34:17;;;;;;;11.82;3.13;;;18.70;29.70;;;;;;4804119;29;20062;-72
2021/04/23 14:36:44;;;;;;;8.55;2.83;;;18.80;30.10;;;;;;4809791;29;20039;-72
2021/04/23 14:39:12;;;;;;;11.73;3.58;;;18.90;30.00;;;;;;4800289;29;20051;-71
2021/04/23 14:41:38;;;;;;;10.98;3.28;;;18.80;29.30;;;;;;4809749;29;20026;-72
2021/04/23 14:44:05;;;;;;;9.32;3.65;;;18.70;29.60;;;;;;4805379;29;20377;-71
2021/04/23 14:46:32;;;;;;;8.85;3.75;;;18.60;30.00;;;;;;4811144;29;20123;-72
2021/04/23 14:48:58;;;;;;;10.57;3.38;;;18.60;30.00;;;;;;4801935;29;20031;-72
2021/04/23 14:51:24;;;;;;;9.27;3.33;;;18.20;30.00;;;;;;4799086;29;20080;-72
2021/04/23 14:53:51;;;;;;;14.45;3.25;;;18.30;31.20;;;;;;4798978;29;20065;-71
2021/04/23 14:56:17;;;;;;;10.03;3.27;;;18.20;30.00;;;;;;4807453;29;20031;-72
2021/04/23 14:58:43;;;;;;;6.88;2.88;;;18.10;30.90;;;;;;4805852;29;20284;-72
2021/04/23 15:01:09;;;;;;;11.20;3.30;;;18.30;31.30;;;;;;4808413;29;20195;-71
2021/04/23 15:03:35;;;;;;;9.40;2.97;;;18.30;30.90;;;;;;4797741;29;20027;-72
2021/04/23 15:06:01;;;;;;;12.00;3.40;;;18.40;32.50;;;;;;4801127;29;20087;-71
2021/04/23 15:08:27;;;;;;;10.77;3.50;;;18.40;32.70;;;;;;4794406;29;20054;-72
2021/04/23 15:10:54;;;;;;;11.40;3.30;;;18.50;32.50;;;;;;4797220;29;20293;-73
2021/04/23 15:13:21;;;;;;;;;;;18.30;30.00;;;;;;4799834;29;20043;-71
2021/04/23 15:15:48;;;;;;;8.20;2.22;;;18.30;30.40;;;;;;4798425;29;19913;-71
2021/04/23 15:18:15;;;;;;;5.72;2.58;;;18.20;30.40;;;;;;4799258;29;20042;-71
2021/04/23 15:20:42;;;;;;;11.60;3.45;;;18.30;31.20;;;;;;4793658;29;20247;-71
2021/04/23 15:23:11;;;;;;;11.07;2.75;;;18.30;32.10;;;;;;4793928;29;20217;-72
2021/04/23 15:25:38;;;;;;;7.15;2.35;;;18.50;31.60;;;;;;4801428;29;20031;-71
2021/04/23 15:28:06;;;;;;;10.02;3.33;;;18.50;30.00;;;;;;4782266;30;20051;-71
2021/04/23 15:30:32;;;;;;;14.10;2.95;;;18.50;30.00;;;;;;4797988;29;20057;-71
2021/04/23 15:32:58;;;;;;;11.27;2.30;;;18.40;29.10;;;;;;4798984;29;20065;-71
2021/04/23 15:35:25;;;;;;;10.57;2.60;;;18.50;29.80;;;;;;4798283;29;20054;-71
2021/04/23 15:37:51;;;;;;;6.82;3.33;;;18.50;29.90;;;;;;4806656;29;20027;-71